Afton, TX

6:58 PM CDT on October 30, 2014 (GMT -0500)
WT_Meso Roaring Springs 3N | Change Station
CLOSE
Current Station
Personal Weather Station
Location: Roaring Springs, TX
Elevation: 2615 ft
Nearby Weather Stations

Elev 2615 ft 33.94 °N, 100.85 °W | Updated 33 minutes ago

Clear
Clear
70 °F
Feels Like 70 °F
N
11
Wind Variable Wind from NE
Gusts 14.0 mph

Today
High -- | Low -- °F
--% Chance of Precip.
Yesterday
High -- | Low -- °F
Precip. -- in
8:00 AM 6:52 PM
Waxing Crescent, 49% visible
Pressure 30.16 in
Visibility 10.0 miles
Clouds Clear
Dew Point 34 °F
Humidity 26%
Rainfall -999.00 in
Snow Depth Not available.
UV 0 out of 12
Pollen 5.10 out of 12
Air Quality Not available.
Flu Activity Not available.
METAR KCDS 302353Z AUTO 06006KT 10SM CLR 22/M01 A3019 RMK AO2 SLP211 T02221011 10267 20222 53013

More Conditions Fewer Conditions

Pressure 30.16 in
Visibility 10.0 miles
Clouds Clear
Dew Point 34 °F
Humidity 26%
Rainfall -999.00 in
Snow Depth Not available.
UV 0 out of 12
Pollen 5.10 out of 12
Air Quality Not available.
Flu Activity Not available.
METAR KCDS 302353Z AUTO 06006KT 10SM CLR 22/M01 A3019 RMK AO2 SLP211 T02221011 10267 20222 53013

More Conditions Fewer Conditions

10-Day Weather Forecast

Almanac

Astronomy

Oct. 30, 2014 Rise Set
Actual Time
Civil Twilight
Nautical Twilight
Astronomical Twilight
Moon
Length of Visible Light
Length of Day
Tomorrow will be .
, % of the Moon is Illuminated

Today's Extremes

State Highs State Lows

Community

WunderPhotos

Upload Photos

1,766,496 photos uploaded!

WunderBlogs® & News

Nearby

Air Quality

  Air Quality AQ Index Pollutant
Not available.

Snow Depth

Station Depth Elevation

Earthquake Activity

City Distance Mag. Time & Date
Minimum magnitude displayed is 2.5.

Coastal Water Temperatures

Place Temperature

Nearby Weather Stations